Time;durP1;ratioP1;P1;durP2;ratioP2;P2;SDS_P1;SDS_P2;PMS_P1;PMS_P2;Temp;Humidity;BMP_temperature;BMP_pressure;BME280_temperature;BME280_humidity;BME280_pressure;Samples;Min_cycle;Max_cycle;Signal;HPM_P1;HPM_P2
2022/06/22 00:01:18;;;;;;;;;;;;;;;;;;6246739;23;19907;-85
2022/06/22 00:03:46;;;;;;;;;;;;;;;;;;6246895;23;19915;-86
2022/06/22 00:06:30;;;;;;;;;;;;;;;;;;6247154;23;19907;-86
2022/06/22 00:08:55;;;;;;;;;;;;;;;;;;6225971;23;19907;-85
2022/06/22 00:11:21;;;;;;;;;;;;;;;;;;6259211;23;19911;-86
2022/06/22 00:13:50;;;;;;;;;;;;;;;;;;6219945;23;19907;-87
2022/06/22 00:16:26;;;;;;;;;;;;;;;;;;6219492;23;19914;-85
2022/06/22 00:18:51;;;;;;;;;;;;;;;;;;6218846;23;19911;-86
2022/06/22 00:21:17;;;;;;;;;;;;;;;;;;6219762;23;19965;-86
2022/06/22 00:23:43;;;;;;;;;;;;;;;;;;6245787;23;19914;-84
2022/06/22 00:26:24;;;;;;;;;;;;;;;;;;6195027;23;19907;-86
2022/06/22 00:29:04;;;;;;;;;;;;;;;;;;6245053;23;19908;-87
2022/06/22 00:31:30;;;;;;;;;;;;;;;;;;6267912;22;19911;-85
2022/06/22 00:34:04;;;;;;;;;;;;;;;;;;6248125;23;20002;-85
2022/06/22 00:36:39;;;;;;;;;;;;;;;;;;6245605;23;19937;-86
2022/06/22 00:39:27;;;;;;;;;;;;;;;;;;6246083;23;20298;-85
2022/06/22 00:42:14;;;;;;;;;;;;;;;;;;6202608;23;19907;-87
2022/06/22 00:44:44;;;;;;;;;;;;;;;;;;6248692;23;20258;-85
2022/06/22 00:47:26;;;;;;;;;;;;;;;;;;6250815;23;19982;-85
2022/06/22 00:49:56;;;;;;;;;;;;;;;;;;6227290;23;19908;-85
2022/06/22 00:52:24;;;;;;;;;;;;;;;;;;6241395;23;19912;-84
2022/06/22 00:54:49;;;;;;;;;;;;;;;;;;6223026;23;19908;-85
2022/06/22 00:57:19;;;;;;;;;;;;;;;;;;6219968;23;19915;-85
2022/06/22 00:59:46;;;;;;;;;;;;;;;;;;6219419;23;20319;-85
2022/06/22 01:02:14;;;;;;;;;;;;;;;;;;6218695;23;19907;-87
2022/06/22 01:04:45;;;;;;;;;;;;;;;;;;6245431;23;19942;-86
2022/06/22 01:07:37;;;;;;;;;;;;;;;;;;6244997;23;19907;-86
2022/06/22 01:10:11;;;;;;;;;;;;;;;;;;6209732;23;19916;-87
2022/06/22 01:12:50;;;;;;;;;;;;;;;;;;6266412;22;19907;-86
2022/06/22 01:15:15;;;;;;;;;;;;;;;;;;6249631;23;19907;-87
2022/06/22 01:17:47;;;;;;;;;;;;;;;;;;6203255;23;20327;-85
2022/06/22 01:20:33;;;;;;;;;;;;;;;;;;6188877;23;19974;-86
2022/06/22 01:23:05;;;;;;;;;;;;;;;;;;6199200;23;19915;-86
2022/06/22 01:25:36;;;;;;;;;;;;;;;;;;6163981;23;20294;-85
2022/06/22 01:28:03;;;;;;;;;;;;;;;;;;6215164;23;19915;-85
2022/06/22 01:30:31;;;;;;;;;;;;;;;;;;6189248;23;19930;-85
2022/06/22 01:32:56;;;;;;;;;;;;;;;;;;6210489;23;19908;-86
2022/06/22 01:35:32;;;;;;;;;;;;;;;;;;6198324;23;19939;-86
2022/06/22 01:37:58;;;;;;;;;;;;;;;;;;6190547;23;19908;-85
2022/06/22 01:40:38;;;;;;;;;;;;;;;;;;6190334;23;19958;-86
2022/06/22 01:43:13;;;;;;;;;;;;;;;;;;6190564;23;19908;-85
2022/06/22 01:46:05;;;;;;;;;;;;;;;;;;6190288;23;20233;-86
2022/06/22 01:48:32;;;;;;;;;;;;;;;;;;6211661;23;19908;-85
2022/06/22 01:51:21;;;;;;;;;;;;;;;;;;6216719;23;20235;-86
2022/06/22 01:53:50;;;;;;;;;;;;;;;;;;6226132;23;19900;-86
2022/06/22 01:56:22;;;;;;;;;;;;;;;;;;6193501;23;19984;-85
2022/06/22 01:58:50;;;;;;;;;;;;;;;;;;6191360;23;19938;-86
2022/06/22 02:01:24;;;;;;;;;;;;;;;;;;6166393;23;19908;-85
2022/06/22 02:04:09;;;;;;;;;;;;;;;;;;6165487;23;20339;-86
2022/06/22 02:09:21;;;;;;;;;;;;;;;;;;6216323;23;20346;-85
2022/06/22 02:12:18;;;;;;;;;;;;;;;;;;6190098;23;19915;-86
2022/06/22 02:14:38;;;;;;;;;;;;;;;;;;6214061;23;19918;-85
2022/06/22 02:17:03;;;;;;;;;;;;;;;;;;6199806;23;19911;-88
2022/06/22 02:19:29;;;;;;;;;;;;;;;;;;6220291;23;20275;-86
2022/06/22 02:21:57;;;;;;;;;;;;;;;;;;6246856;23;20319;-87
2022/06/22 02:24:22;;;;;;;;;;;;;;;;;;6220137;23;19915;-85
2022/06/22 02:27:08;;;;;;;;;;;;;;;;;;6246736;23;20239;-86
2022/06/22 02:29:35;;;;;;;;;;;;;;;;;;6219117;23;19908;-86
2022/06/22 02:32:01;;;;;;;;;;;;;;;;;;6219749;23;20379;-86
2022/06/22 02:34:26;;;;;;;;;;;;;;;;;;6261555;22;20301;-86
2022/06/22 02:36:53;;;;;;;;;;;;;;;;;;6255309;23;19981;-85
2022/06/22 02:39:18;;;;;;;;;;;;;;;;;;6247728;23;19982;-84
2022/06/22 02:44:29;;;;;;;;;;;;;;;;;;6223737;23;19973;-86
2022/06/22 02:46:54;;;;;;;;;;;;;;;;;;6218267;23;19964;-86
2022/06/22 02:49:40;;;;;;;;;;;;;;;;;;6219520;23;19911;-87
2022/06/22 02:52:05;;;;;;;;;;;;;;;;;;6246107;23;19920;-86
2022/06/22 02:54:35;;;;;;;;;;;;;;;;;;6259518;22;19938;-85
2022/06/22 02:57:03;;;;;;;;;;;;;;;;;;6226919;23;19911;-85
2022/06/22 02:59:28;;;;;;;;;;;;;;;;;;6219951;23;19907;-85
2022/06/22 03:01:56;;;;;;;;;;;;;;;;;;6219832;23;19964;-85
2022/06/22 03:04:21;;;;;;;;;;;;;;;;;;6195051;23;19982;-85
2022/06/22 03:06:48;;;;;;;;;;;;;;;;;;6219177;23;19915;-85
2022/06/22 03:09:13;;;;;;;;;;;;;;;;;;6246242;23;19908;-85
2022/06/22 03:11:39;;;;;;;;;;;;;;;;;;6219610;23;19915;-85
2022/06/22 03:14:05;;;;;;;;;;;;;;;;;;6220842;23;19908;-85
2022/06/22 03:16:35;;;;;;;;;;;;;;;;;;6228081;23;19915;-86
2022/06/22 03:19:01;;;;;;;;;;;;;;;;;;6246950;23;19914;-85
2022/06/22 03:21:26;;;;;;;;;;;;;;;;;;6219227;23;19911;-84
2022/06/22 03:23:55;;;;;;;;;;;;;;;;;;6220380;23;19930;-85
2022/06/22 03:26:20;;;;;;;;;;;;;;;;;;6246669;23;19907;-86
2022/06/22 03:28:54;;;;;;;;;;;;;;;;;;6246335;23;19938;-86
2022/06/22 03:31:25;;;;;;;;;;;;;;;;;;6219428;23;19908;-85
2022/06/22 03:34:10;;;;;;;;;;;;;;;;;;6194533;23;19911;-86
2022/06/22 03:36:46;;;;;;;;;;;;;;;;;;6253593;23;19931;-85
2022/06/22 03:39:14;;;;;;;;;;;;;;;;;;6219781;23;19907;-86
2022/06/22 03:41:41;;;;;;;;;;;;;;;;;;6220128;23;19908;-85
2022/06/22 03:44:09;;;;;;;;;;;;;;;;;;6219504;23;19923;-85
2022/06/22 03:46:42;;;;;;;;;;;;;;;;;;6220503;23;19915;-85
2022/06/22 03:49:11;;;;;;;;;;;;;;;;;;6219766;23;19911;-85
2022/06/22 03:51:40;;;;;;;;;;;;;;;;;;6197846;23;19908;-85
2022/06/22 03:54:10;;;;;;;;;;;;;;;;;;6246641;23;19907;-85
2022/06/22 03:56:39;;;;;;;;;;;;;;;;;;6208991;23;19955;-86
2022/06/22 03:59:04;;;;;;;;;;;;;;;;;;6220471;23;19943;-84
2022/06/22 04:01:30;;;;;;;;;;;;;;;;;;6272990;23;19895;-84
2022/06/22 04:03:55;;;;;;;;;;;;;;;;;;6260328;23;19982;-85
2022/06/22 04:06:31;;;;;;;;;;;;;;;;;;6218924;23;19915;-85
2022/06/22 04:08:57;;;;;;;;;;;;;;;;;;6222478;23;19912;-79
2022/06/22 04:11:25;;;;;;;;;;;;;;;;;;6245155;23;19914;-78
2022/06/22 04:14:01;;;;;;;;;;;;;;;;;;6245426;23;19973;-79
2022/06/22 04:16:30;;;;;;;;;;;;;;;;;;6220756;23;19919;-78
2022/06/22 04:19:19;;;;;;;;;;;;;;;;;;6194374;23;20285;-79
2022/06/22 04:21:46;;;;;;;;;;;;;;;;;;6232508;23;19915;-79
2022/06/22 04:24:16;;;;;;;;;;;;;;;;;;6218731;23;20390;-78
2022/06/22 04:26:46;;;;;;;;;;;;;;;;;;6218234;23;19958;-79
2022/06/22 04:29:23;;;;;;;;;;;;;;;;;;6245586;23;19967;-78
2022/06/22 04:31:53;;;;;;;;;;;;;;;;;;6218874;23;19908;-78
2022/06/22 04:34:27;;;;;;;;;;;;;;;;;;6218837;23;19919;-78
2022/06/22 04:36:53;;;;;;;;;;;;;;;;;;6221334;23;20235;-79
2022/06/22 04:39:22;;;;;;;;;;;;;;;;;;6222465;23;19908;-77
2022/06/22 04:41:47;;;;;;;;;;;;;;;;;;6218444;23;19907;-75
2022/06/22 04:44:25;;;;;;;;;;;;;;;;;;6218034;23;19965;-80
2022/06/22 04:46:53;;;;;;;;;;;;;;;;;;6217633;23;20238;-78
2022/06/22 04:49:23;;;;;;;;;;;;;;;;;;6249249;23;19914;-76
2022/06/22 04:51:51;;;;;;;;;;;;;;;;;;6246358;23;19914;-79
2022/06/22 04:54:33;;;;;;;;;;;;;;;;;;6192097;23;19916;-79
2022/06/22 04:57:04;;;;;;;;;;;;;;;;;;6213574;23;19915;-77
2022/06/22 04:59:29;;;;;;;;;;;;;;;;;;6244060;23;19965;-79
2022/06/22 05:01:58;;;;;;;;;;;;;;;;;;6237636;23;19907;-80
2022/06/22 05:04:45;;;;;;;;;;;;;;;;;;6239745;23;19911;-79
2022/06/22 05:07:17;;;;;;;;;;;;;;;;;;6239852;23;20334;-79
2022/06/22 05:09:44;;;;;;;;;;;;;;;;;;6239600;23;20203;-77
2022/06/22 05:12:13;;;;;;;;;;;;;;;;;;6242505;23;19983;-80
2022/06/22 05:14:44;;;;;;;;;;;;;;;;;;6215802;23;19915;-80
2022/06/22 05:17:27;;;;;;;;;;;;;;;;;;6216471;23;19912;-79
2022/06/22 05:19:56;;;;;;;;;;;;;;;;;;6221929;23;20219;-78
2022/06/22 05:22:21;;;;;;;;;;;;;;;;;;6213943;23;19991;-79
2022/06/22 05:24:49;;;;;;;;;;;;;;;;;;6240455;23;19951;-78
2022/06/22 05:27:18;;;;;;;;;;;;;;;;;;6187413;23;19991;-78
2022/06/22 05:29:47;;;;;;;;;;;;;;;;;;6213103;23;19919;-79
2022/06/22 05:32:20;;;;;;;;;;;;;;;;;;6240804;23;19908;-76
2022/06/22 05:34:49;;;;;;;;;;;;;;;;;;6218445;23;19908;-77
2022/06/22 05:37:19;;;;;;;;;;;;;;;;;;6245019;23;19908;-78
2022/06/22 05:39:47;;;;;;;;;;;;;;;;;;6256325;23;20326;-78
2022/06/22 05:42:12;;;;;;;;;;;;;;;;;;6246109;23;19908;-78
2022/06/22 05:44:38;;;;;;;;;;;;;;;;;;6219188;23;20337;-78
2022/06/22 05:47:03;;;;;;;;;;;;;;;;;;6217895;23;19939;-77
2022/06/22 05:49:31;;;;;;;;;;;;;;;;;;6191362;23;19937;-78
2022/06/22 05:52:15;;;;;;;;;;;;;;;;;;6212897;23;19915;-78
2022/06/22 05:55:07;;;;;;;;;;;;;;;;;;6238742;23;19908;-77
2022/06/22 05:57:36;;;;;;;;;;;;;;;;;;6238225;23;19915;-77
2022/06/22 06:00:28;;;;;;;;;;;;;;;;;;6227469;23;20299;-81
2022/06/22 06:03:00;;;;;;;;;;;;;;;;;;6238108;23;19923;-77
2022/06/22 06:05:36;;;;;;;;;;;;;;;;;;6190526;23;19907;-76
2022/06/22 06:08:08;;;;;;;;;;;;;;;;;;6218621;23;20343;-79
2022/06/22 06:10:35;;;;;;;;;;;;;;;;;;6220011;23;20272;-77
2022/06/22 06:13:15;;;;;;;;;;;;;;;;;;6214353;23;19912;-76
2022/06/22 06:15:41;;;;;;;;;;;;;;;;;;6241687;23;19911;-76
2022/06/22 06:18:07;;;;;;;;;;;;;;;;;;6215408;23;19923;-78
2022/06/22 06:20:37;;;;;;;;;;;;;;;;;;6251422;23;19907;-77
2022/06/22 06:23:09;;;;;;;;;;;;;;;;;;6222653;23;19907;-77
2022/06/22 06:28:22;;;;;;;;;;;;;;;;;;6221702;23;19940;-76
2022/06/22 06:30:49;;;;;;;;;;;;;;;;;;6218052;23;19986;-77
2022/06/22 06:33:20;;;;;;;;;;;;;;;;;;6196371;23;20121;-79
2022/06/22 06:35:47;;;;;;;;;;;;;;;;;;6220204;23;19982;-78
2022/06/22 06:38:18;;;;;;;;;;;;;;;;;;6219928;23;19965;-78
2022/06/22 06:40:55;;;;;;;;;;;;;;;;;;6251615;23;20327;-78
2022/06/22 06:43:29;;;;;;;;;;;;;;;;;;6246501;23;19950;-78
2022/06/22 06:45:55;;;;;;;;;;;;;;;;;;6219263;23;19907;-77
2022/06/22 06:48:22;;;;;;;;;;;;;;;;;;6245673;23;19953;-79
2022/06/22 06:50:51;;;;;;;;;;;;;;;;;;6218158;23;20432;-79
2022/06/22 06:53:24;;;;;;;;;;;;;;;;;;6220388;23;19903;-78
2022/06/22 06:55:55;;;;;;;;;;;;;;;;;;6196592;23;19908;-77
2022/06/22 06:58:27;;;;;;;;;;;;;;;;;;6242134;23;19930;-79
2022/06/22 07:01:18;;;;;;;;;;;;;;;;;;6256166;23;20318;-80
2022/06/22 07:03:47;;;;;;;;;;;;;;;;;;6223414;23;19911;-79
2022/06/22 07:06:12;;;;;;;;;;;;;;;;;;6250152;23;19908;-78
2022/06/22 07:08:43;;;;;;;;;;;;;;;;;;6246278;23;20242;-78
2022/06/22 07:11:18;;;;;;;;;;;;;;;;;;6220099;23;19965;-78
2022/06/22 07:13:52;;;;;;;;;;;;;;;;;;6217751;23;19934;-77
2022/06/22 07:16:20;;;;;;;;;;;;;;;;;;6219263;23;19907;-79
2022/06/22 07:19:02;;;;;;;;;;;;;;;;;;6246006;23;19973;-81
2022/06/22 07:21:56;;;;;;;;;;;;;;;;;;6221783;23;19983;-79
2022/06/22 07:24:33;;;;;;;;;;;;;;;;;;6152696;23;19909;-79
2022/06/22 07:27:07;;;;;;;;;;;;;;;;;;6151222;23;19908;-79
2022/06/22 07:29:39;;;;;;;;;;;;;;;;;;6151554;23;20321;-80
2022/06/22 07:32:12;;;;;;;;;;;;;;;;;;6151565;23;20331;-78
2022/06/22 07:34:42;;;;;;;;;;;;;;;;;;6150282;23;20249;-78
2022/06/22 07:37:25;;;;;;;;;;;;;;;;;;6146143;23;19909;-78
2022/06/22 07:39:56;;;;;;;;;;;;;;;;;;6150363;23;20344;-79
2022/06/22 07:42:21;;;;;;;;;;;;;;;;;;6158424;23;19908;-77
2022/06/22 07:44:47;;;;;;;;;;;;;;;;;;6123452;23;19967;-77
2022/06/22 07:47:20;;;;;;;;;;;;;;;;;;6147875;23;19939;-79
2022/06/22 07:50:04;;;;;;;;;;;;;;;;;;6149462;23;20328;-80
2022/06/22 07:52:33;;;;;;;;;;;;;;;;;;6150022;23;19915;-80
2022/06/22 07:55:00;;;;;;;;;;;;;;;;;;6193146;23;19907;-80
2022/06/22 07:57:34;;;;;;;;;;;;;;;;;;6215538;23;19908;-78
2022/06/22 08:00:13;;;;;;;;;;;;;;;;;;6224775;22;19908;-80
2022/06/22 08:02:47;;;;;;;;;;;;;;;;;;6256550;23;19918;-80
2022/06/22 08:05:13;;;;;;;;;;;;;;;;;;6216745;23;20323;-79
2022/06/22 08:07:50;;;;;;;;;;;;;;;;;;6216608;23;19908;-80
2022/06/22 08:10:31;;;;;;;;;;;;;;;;;;6217529;23;19932;-81
2022/06/22 08:12:59;;;;;;;;;;;;;;;;;;6217513;23;20260;-79
2022/06/22 08:15:24;;;;;;;;;;;;;;;;;;6243414;23;19914;-80
2022/06/22 08:17:52;;;;;;;;;;;;;;;;;;6243746;23;19912;-80
2022/06/22 08:20:18;;;;;;;;;;;;;;;;;;6246676;23;19907;-81
2022/06/22 08:22:44;;;;;;;;;;;;;;;;;;6260160;23;19907;-79
2022/06/22 08:25:11;;;;;;;;;;;;;;;;;;6246482;23;19907;-79
2022/06/22 08:27:43;;;;;;;;;;;;;;;;;;6246581;23;19907;-81
2022/06/22 08:30:09;;;;;;;;;;;;;;;;;;6246762;23;19987;-79
2022/06/22 08:33:01;;;;;;;;;;;;;;;;;;6245555;23;19908;-79
2022/06/22 08:35:30;;;;;;;;;;;;;;;;;;6237785;23;19918;-78
2022/06/22 08:37:56;;;;;;;;;;;;;;;;;;6214994;23;19907;-76
2022/06/22 08:40:24;;;;;;;;;;;;;;;;;;6242757;23;19915;-80
2022/06/22 08:43:01;;;;;;;;;;;;;;;;;;6249676;23;19985;-79
2022/06/22 08:45:45;;;;;;;;;;;;;;;;;;6214243;23;19961;-79
2022/06/22 08:48:22;;;;;;;;;;;;;;;;;;6243547;23;19915;-78
2022/06/22 08:50:50;;;;;;;;;;;;;;;;;;6189595;23;20275;-78
2022/06/22 08:53:44;;;;;;;;;;;;;;;;;;6241393;23;19908;-78
2022/06/22 08:56:22;;;;;;;;;;;;;;;;;;6221939;23;19915;-78
2022/06/22 08:58:54;;;;;;;;;;;;;;;;;;6215880;23;19913;-79
2022/06/22 09:01:19;;;;;;;;;;;;;;;;;;6248642;23;19981;-79
2022/06/22 09:03:50;;;;;;;;;;;;;;;;;;6252099;23;20219;-79
2022/06/22 09:06:34;;;;;;;;;;;;;;;;;;6242731;23;19915;-79
2022/06/22 09:09:08;;;;;;;;;;;;;;;;;;6190003;23;19907;-78
2022/06/22 09:11:37;;;;;;;;;;;;;;;;;;6244559;23;19931;-78
2022/06/22 09:14:04;;;;;;;;;;;;;;;;;;6244786;23;19911;-79
2022/06/22 09:16:48;;;;;;;;;;;;;;;;;;6243611;23;19945;-79
2022/06/22 09:19:22;;;;;;;;;;;;;;;;;;6244548;23;19912;-79
2022/06/22 09:22:06;;;;;;;;;;;;;;;;;;6221338;23;19907;-80
2022/06/22 09:24:35;;;;;;;;;;;;;;;;;;6253742;23;19911;-80
2022/06/22 09:27:00;;;;;;;;;;;;;;;;;;6244896;23;19965;-78
2022/06/22 09:29:28;;;;;;;;;;;;;;;;;;6245759;23;19986;-79
2022/06/22 09:32:23;;;;;;;;;;;;;;;;;;6243642;23;19914;-79
2022/06/22 09:34:51;;;;;;;;;;;;;;;;;;6223539;23;20329;-79
2022/06/22 09:37:22;;;;;;;;;;;;;;;;;;6243028;23;19908;-79
2022/06/22 09:40:05;;;;;;;;;;;;;;;;;;6216689;23;19918;-78
2022/06/22 09:42:31;;;;;;;;;;;;;;;;;;6248652;22;19960;-78
2022/06/22 09:45:08;;;;;;;;;;;;;;;;;;6253284;23;19912;-79
2022/06/22 09:47:49;;;;;;;;;;;;;;;;;;6217730;23;19915;-76
2022/06/22 09:50:34;;;;;;;;;;;;;;;;;;6217609;23;20000;-78
2022/06/22 09:53:03;;;;;;;;;;;;;;;;;;6244328;23;19908;-77
2022/06/22 09:58:18;;;;;;;;;;;;;;;;;;6222132;23;19914;-77
2022/06/22 10:00:46;;;;;;;;;;;;;;;;;;6246451;23;20311;-79
2022/06/22 10:03:35;;;;;;;;;;;;;;;;;;6250793;23;19946;-78
2022/06/22 10:06:18;;;;;;;;;;;;;;;;;;6250195;23;19907;-78
2022/06/22 10:08:54;;;;;;;;;;;;;;;;;;6220260;23;19978;-79
2022/06/22 10:11:25;;;;;;;;;;;;;;;;;;6220483;23;19908;-79
2022/06/22 10:13:50;;;;;;;;;;;;;;;;;;6249343;23;19908;-80
2022/06/22 10:16:35;;;;;;;;;;;;;;;;;;6249590;23;19914;-79
2022/06/22 10:19:21;;;;;;;;;;;;;;;;;;6246704;23;20331;-79
2022/06/22 10:21:46;;;;;;;;;;;;;;;;;;6199708;23;19942;-80
2022/06/22 10:24:12;;;;;;;;;;;;;;;;;;6258829;23;19907;-79
2022/06/22 10:26:47;;;;;;;;;;;;;;;;;;6250042;23;20315;-79
2022/06/22 10:29:12;;;;;;;;;;;;;;;;;;6220857;23;19908;-78
2022/06/22 10:31:41;;;;;;;;;;;;;;;;;;6246356;23;19908;-78
2022/06/22 10:34:18;;;;;;;;;;;;;;;;;;6246767;23;19987;-77
2022/06/22 10:36:46;;;;;;;;;;;;;;;;;;6245351;23;19979;-79
2022/06/22 10:39:30;;;;;;;;;;;;;;;;;;6246320;23;19908;-79
2022/06/22 10:45:14;;;;;;;;;;;;;;;;;;6253066;23;19937;-78
2022/06/22 10:47:58;;;;;;;;;;;;;;;;;;6248377;23;19907;-76
2022/06/22 10:50:38;;;;;;;;;;;;;;;;;;6245775;23;19908;-78
2022/06/22 10:53:03;;;;;;;;;;;;;;;;;;6246053;23;19914;-79
2022/06/22 10:55:32;;;;;;;;;;;;;;;;;;6246499;23;19908;-80
2022/06/22 10:58:17;;;;;;;;;;;;;;;;;;6220140;23;19907;-79
2022/06/22 11:01:01;;;;;;;;;;;;;;;;;;6245897;23;19982;-79
2022/06/22 11:03:44;;;;;;;;;;;;;;;;;;6245948;23;20250;-80
2022/06/22 11:06:16;;;;;;;;;;;;;;;;;;6261110;22;20294;-79
2022/06/22 11:09:03;;;;;;;;;;;;;;;;;;6246779;23;19979;-80
2022/06/22 11:11:55;;;;;;;;;;;;;;;;;;6219639;23;19908;-80
2022/06/22 11:14:20;;;;;;;;;;;;;;;;;;6241701;23;19903;-79
2022/06/22 11:17:04;;;;;;;;;;;;;;;;;;6245718;23;19908;-79
2022/06/22 11:19:44;;;;;;;;;;;;;;;;;;6245829;23;19907;-79
2022/06/22 11:22:28;;;;;;;;;;;;;;;;;;6219577;23;19907;-79
2022/06/22 11:25:12;;;;;;;;;;;;;;;;;;6254858;23;19926;-79
2022/06/22 11:33:17;;;;;;;;;;;;;;;;;;6222837;23;20018;-79
2022/06/22 11:35:48;;;;;;;;;;;;;;;;;;6218897;23;19939;-79
2022/06/22 11:38:20;;;;;;;;;;;;;;;;;;6246489;23;19946;-77
2022/06/22 11:40:51;;;;;;;;;;;;;;;;;;6245933;23;19943;-79
2022/06/22 11:43:19;;;;;;;;;;;;;;;;;;6245591;23;19914;-79
2022/06/22 11:46:05;;;;;;;;;;;;;;;;;;6247395;23;19908;-76
2022/06/22 11:48:33;;;;;;;;;;;;;;;;;;6245505;23;19958;-80
2022/06/22 11:51:18;;;;;;;;;;;;;;;;;;6245955;23;19923;-78
2022/06/22 11:53:58;;;;;;;;;;;;;;;;;;6245945;23;20014;-77
2022/06/22 11:56:23;;;;;;;;;;;;;;;;;;6245983;23;19914;-77
2022/06/22 11:59:02;;;;;;;;;;;;;;;;;;6245612;23;19941;-78
2022/06/22 12:01:46;;;;;;;;;;;;;;;;;;6218309;23;19907;-77
2022/06/22 12:04:14;;;;;;;;;;;;;;;;;;6245914;23;19903;-78
2022/06/22 12:06:53;;;;;;;;;;;;;;;;;;6252267;23;19907;-78
2022/06/22 12:09:24;;;;;;;;;;;;;;;;;;6245804;23;19985;-77
2022/06/22 12:12:07;;;;;;;;;;;;;;;;;;6245708;23;19958;-77
2022/06/22 12:15:16;;;;;;;;;;;;;;;;;;6245583;23;20300;-76
2022/06/22 12:17:58;;;;;;;;;;;;;;;;;;6243956;23;20307;-78
2022/06/22 12:20:50;;;;;;;;;;;;;;;;;;6245549;23;19938;-78
2022/06/22 12:23:21;;;;;;;;;;;;;;;;;;6214197;23;19958;-78
2022/06/22 12:26:06;;;;;;;;;;;;;;;;;;6248152;23;19896;-78
2022/06/22 12:28:35;;;;;;;;;;;;;;;;;;6248427;23;19982;-77
2022/06/22 12:31:05;;;;;;;;;;;;;;;;;;6245223;23;19907;-79
2022/06/22 12:33:37;;;;;;;;;;;;;;;;;;6218761;23;19908;-77
2022/06/22 12:36:21;;;;;;;;;;;;;;;;;;6245732;23;19907;-78
2022/06/22 12:38:48;;;;;;;;;;;;;;;;;;6244989;23;20314;-78
2022/06/22 12:41:13;;;;;;;;;;;;;;;;;;6218887;23;19907;-78
2022/06/22 12:43:54;;;;;;;;;;;;;;;;;;6245723;23;19914;-79
2022/06/22 12:46:28;;;;;;;;;;;;;;;;;;6220941;23;19951;-79
2022/06/22 12:49:12;;;;;;;;;;;;;;;;;;6251895;23;19982;-78
2022/06/22 12:51:45;;;;;;;;;;;;;;;;;;6245332;23;19974;-78
2022/06/22 12:54:11;;;;;;;;;;;;;;;;;;6218520;23;19907;-79
2022/06/22 12:56:38;;;;;;;;;;;;;;;;;;6245024;23;19911;-76
2022/06/22 12:59:12;;;;;;;;;;;;;;;;;;6218597;23;19907;-78
2022/06/22 13:01:38;;;;;;;;;;;;;;;;;;6244616;23;19907;-77
2022/06/22 13:04:06;;;;;;;;;;;;;;;;;;6218515;23;19907;-77
2022/06/22 13:06:31;;;;;;;;;;;;;;;;;;6246437;23;20231;-77
2022/06/22 13:08:57;;;;;;;;;;;;;;;;;;6220883;23;19907;-79
2022/06/22 13:11:24;;;;;;;;;;;;;;;;;;6244716;23;19907;-78
2022/06/22 13:14:13;;;;;;;;;;;;;;;;;;6245102;23;19927;-84
2022/06/22 13:16:41;;;;;;;;;;;;;;;;;;6218357;23;19965;-86
2022/06/22 13:19:19;;;;;;;;;;;;;;;;;;6218645;23;19923;-86
2022/06/22 13:21:59;;;;;;;;;;;;;;;;;;6218320;23;20297;-85
2022/06/22 13:24:27;;;;;;;;;;;;;;;;;;6218145;23;20311;-85
2022/06/22 13:27:11;;;;;;;;;;;;;;;;;;6234845;23;19964;-86
2022/06/22 13:29:42;;;;;;;;;;;;;;;;;;6246763;23;20308;-87
2022/06/22 13:32:08;;;;;;;;;;;;;;;;;;6248314;23;19913;-86
2022/06/22 13:34:48;;;;;;;;;;;;;;;;;;6197213;23;19927;-86
2022/06/22 13:37:28;;;;;;;;;;;;;;;;;;6222294;23;20285;-87
2022/06/22 13:40:09;;;;;;;;;;;;;;;;;;6248643;23;20295;-85
2022/06/22 13:42:55;;;;;;;;;;;;;;;;;;6248280;23;20334;-87
2022/06/22 13:45:20;;;;;;;;;;;;;;;;;;6222254;23;20319;-87
2022/06/22 13:47:54;;;;;;;;;;;;;;;;;;6259142;23;20025;-87
2022/06/22 13:50:33;;;;;;;;;;;;;;;;;;6248772;23;19908;-86
2022/06/22 13:53:00;;;;;;;;;;;;;;;;;;6222629;23;20356;-88
2022/06/22 13:55:28;;;;;;;;;;;;;;;;;;6248439;23;19915;-86
2022/06/22 13:58:05;;;;;;;;;;;;;;;;;;6248554;23;19942;-86
2022/06/22 14:00:31;;;;;;;;;;;;;;;;;;6221370;23;19915;-87
2022/06/22 14:03:03;;;;;;;;;;;;;;;;;;6221761;23;19904;-86
2022/06/22 14:05:34;;;;;;;;;;;;;;;;;;6221548;23;19908;-86
2022/06/22 14:08:13;;;;;;;;;;;;;;;;;;6259604;23;20339;-86
2022/06/22 14:10:46;;;;;;;;;;;;;;;;;;6221962;23;19915;-85
2022/06/22 14:13:26;;;;;;;;;;;;;;;;;;6221526;23;19907;-87
2022/06/22 14:16:12;;;;;;;;;;;;;;;;;;6248331;23;19912;-86
2022/06/22 14:18:44;;;;;;;;;;;;;;;;;;6231969;23;19921;-86
2022/06/22 14:21:25;;;;;;;;;;;;;;;;;;6248580;23;19907;-86
2022/06/22 14:23:50;;;;;;;;;;;;;;;;;;6221542;23;19908;-87
2022/06/22 14:26:26;;;;;;;;;;;;;;;;;;6221737;23;19916;-86
2022/06/22 14:28:54;;;;;;;;;;;;;;;;;;6264949;23;19908;-86
2022/06/22 14:31:27;;;;;;;;;;;;;;;;;;6248667;23;19914;-86
2022/06/22 14:33:53;;;;;;;;;;;;;;;;;;6248585;23;20559;-87
2022/06/22 14:36:38;;;;;;;;;;;;;;;;;;6248443;23;19911;-86
2022/06/22 14:39:22;;;;;;;;;;;;;;;;;;6248036;23;19908;-86
2022/06/22 14:41:52;;;;;;;;;;;;;;;;;;6246909;23;19946;-87
2022/06/22 14:44:23;;;;;;;;;;;;;;;;;;6220013;23;19927;-86
2022/06/22 14:46:51;;;;;;;;;;;;;;;;;;6246338;23;20333;-87
2022/06/22 14:49:20;;;;;;;;;;;;;;;;;;6237896;23;19935;-87
2022/06/22 14:51:55;;;;;;;;;;;;;;;;;;6220523;23;19966;-87
2022/06/22 14:54:23;;;;;;;;;;;;;;;;;;6246318;23;19977;-87
2022/06/22 14:57:07;;;;;;;;;;;;;;;;;;6246635;23;20234;-86
2022/06/22 14:59:35;;;;;;;;;;;;;;;;;;6246311;23;19986;-87
2022/06/22 15:02:07;;;;;;;;;;;;;;;;;;6246274;23;20255;-87
2022/06/22 15:04:53;;;;;;;;;;;;;;;;;;6246404;23;20238;-87
2022/06/22 15:07:21;;;;;;;;;;;;;;;;;;6219642;23;20516;-87
2022/06/22 15:09:46;;;;;;;;;;;;;;;;;;6237643;23;19943;-87
2022/06/22 15:15:09;;;;;;;;;;;;;;;;;;6246172;23;19915;-87
2022/06/22 15:17:46;;;;;;;;;;;;;;;;;;6220112;23;19918;-87
2022/06/22 15:20:30;;;;;;;;;;;;;;;;;;6246321;23;19911;-87
2022/06/22 15:22:59;;;;;;;;;;;;;;;;;;6246236;23;20246;-87
2022/06/22 15:25:24;;;;;;;;;;;;;;;;;;6246046;23;19989;-87
2022/06/22 15:28:02;;;;;;;;;;;;;;;;;;6219210;23;19908;-87
2022/06/22 15:30:29;;;;;;;;;;;;;;;;;;6261530;22;19970;-87
2022/06/22 15:33:09;;;;;;;;;;;;;;;;;;6247309;23;19982;-87
2022/06/22 15:35:48;;;;;;;;;;;;;;;;;;6219411;23;19913;-87
2022/06/22 15:38:37;;;;;;;;;;;;;;;;;;6219274;23;19942;-86
2022/06/22 15:41:03;;;;;;;;;;;;;;;;;;6202755;23;19951;-87
2022/06/22 15:43:47;;;;;;;;;;;;;;;;;;6219014;23;20311;-87
2022/06/22 15:46:19;;;;;;;;;;;;;;;;;;6218998;23;20243;-86
2022/06/22 15:48:44;;;;;;;;;;;;;;;;;;6246155;23;19908;-87
2022/06/22 15:51:28;;;;;;;;;;;;;;;;;;6260712;23;19914;-87
2022/06/22 15:54:08;;;;;;;;;;;;;;;;;;6245693;23;19918;-86
2022/06/22 15:56:39;;;;;;;;;;;;;;;;;;6245640;23;19915;-86
2022/06/22 15:59:16;;;;;;;;;;;;;;;;;;6219185;23;19930;-86
2022/06/22 16:01:58;;;;;;;;;;;;;;;;;;6246855;23;19913;-87
2022/06/22 16:04:44;;;;;;;;;;;;;;;;;;6220752;23;19908;-85
2022/06/22 16:07:26;;;;;;;;;;;;;;;;;;6220491;23;20310;-85
2022/06/22 16:09:51;;;;;;;;;;;;;;;;;;6225550;23;19951;-86
2022/06/22 16:15:10;;;;;;;;;;;;;;;;;;6223665;23;19914;-87
2022/06/22 16:17:40;;;;;;;;;;;;;;;;;;6219581;23;20325;-87
2022/06/22 16:20:12;;;;;;;;;;;;;;;;;;6220163;23;19912;-86
2022/06/22 16:22:38;;;;;;;;;;;;;;;;;;6270161;23;19907;-85
2022/06/22 16:25:10;;;;;;;;;;;;;;;;;;6266385;23;20230;-86
2022/06/22 16:27:44;;;;;;;;;;;;;;;;;;6236108;23;19915;-86
2022/06/22 16:30:10;;;;;;;;;;;;;;;;;;6252532;23;19907;-87
2022/06/22 16:32:52;;;;;;;;;;;;;;;;;;6262160;23;20314;-86
2022/06/22 16:35:33;;;;;;;;;;;;;;;;;;6221285;23;19912;-87
2022/06/22 16:38:06;;;;;;;;;;;;;;;;;;6218555;23;19980;-87
2022/06/22 16:40:41;;;;;;;;;;;;;;;;;;6245668;23;19908;-86
2022/06/22 16:43:18;;;;;;;;;;;;;;;;;;6245936;23;19915;-86
2022/06/22 16:45:47;;;;;;;;;;;;;;;;;;6246320;23;20009;-87
2022/06/22 16:48:15;;;;;;;;;;;;;;;;;;6245466;23;19983;-88
2022/06/22 16:50:59;;;;;;;;;;;;;;;;;;6246922;23;19908;-86
2022/06/22 16:53:25;;;;;;;;;;;;;;;;;;6233555;23;19918;-86
2022/06/22 16:55:52;;;;;;;;;;;;;;;;;;6246164;23;19908;-87
2022/06/22 16:58:21;;;;;;;;;;;;;;;;;;6218495;23;19914;-87
2022/06/22 17:00:49;;;;;;;;;;;;;;;;;;6245178;23;19908;-86
2022/06/22 17:03:18;;;;;;;;;;;;;;;;;;6245459;23;19907;-87
2022/06/22 17:05:58;;;;;;;;;;;;;;;;;;6245303;23;20300;-87
2022/06/22 17:08:39;;;;;;;;;;;;;;;;;;6194048;23;20307;-86
2022/06/22 17:11:07;;;;;;;;;;;;;;;;;;6193431;23;19907;-84
2022/06/22 17:13:34;;;;;;;;;;;;;;;;;;6264060;22;19942;-86
2022/06/22 17:16:17;;;;;;;;;;;;;;;;;;6246065;23;19912;-85
2022/06/22 17:18:54;;;;;;;;;;;;;;;;;;6191050;23;19912;-85
2022/06/22 17:21:32;;;;;;;;;;;;;;;;;;6188291;23;19991;-85
2022/06/22 17:24:00;;;;;;;;;;;;;;;;;;6215322;23;20526;-88
2022/06/22 17:26:29;;;;;;;;;;;;;;;;;;6215030;23;19907;-84
2022/06/22 17:29:06;;;;;;;;;;;;;;;;;;6188868;23;19914;-88
2022/06/22 17:31:33;;;;;;;;;;;;;;;;;;6214744;23;20330;-85
2022/06/22 17:34:10;;;;;;;;;;;;;;;;;;6208040;23;20235;-86
2022/06/22 17:36:35;;;;;;;;;;;;;;;;;;6188652;23;19908;-86
2022/06/22 17:39:18;;;;;;;;;;;;;;;;;;6215369;23;19943;-84
2022/06/22 17:42:13;;;;;;;;;;;;;;;;;;6188677;23;19912;-86
2022/06/22 17:44:51;;;;;;;;;;;;;;;;;;6134040;23;19909;-86
2022/06/22 17:47:23;;;;;;;;;;;;;;;;;;6188068;23;19908;-86
2022/06/22 17:49:49;;;;;;;;;;;;;;;;;;6215320;23;19907;-86
2022/06/22 17:52:16;;;;;;;;;;;;;;;;;;6190092;23;19934;-86